This is the latest recevied weather packets stored in our database for station/object KE8URB. If no packets are shown the sender has not sent any weather packets the latest 10 day(s).
| Time | Temp. | Humidity | Pressure | Rain* | Wind** | Luminosity | Snow |
|---|---|---|---|---|---|---|---|
| 1787432167 | 22.78° C | 89% | 1011 hPa | 0 mm | - | 3 W/m² | - |
| 1787431866 | 22.78° C | 89% | 1010.7 hPa | 0 mm | - | 9 W/m² | - |
| 1787431562 | 22.78° C | 89% | 1010.8 hPa | 0 mm | - | 12 W/m² | - |
| 1787431257 | 23.33° C | 91% | 1011.3 hPa | 0 mm | - | 17 W/m² | - |
| 1787430954 | 23.33° C | 91% | 1011 hPa | 0 mm | - | 35 W/m² | - |
| 1787430649 | 23.89° C | 89% | 1011 hPa | 0 mm | - | 52 W/m² | - |
| 1787430346 | 25° C | 85% | 1011 hPa | 0 mm | - | 72 W/m² | - |
| 1787430042 | 25.56° C | 85% | 1010.8 hPa | 0 mm | - | 482 W/m² | - |
| 1787429737 | 25° C | 86% | 1011 hPa | 0 mm | - | 481 W/m² | - |
| 1787429437 | 23.89° C | 89% | 1011.2 hPa | 0 mm | - | 492 W/m² | - |
| 1787429134 | 23.33° C | 90% | 1011.4 hPa | 0 mm | - | 487 W/m² | - |
| 1787428829 | 22.78° C | 94% | 1011.3 hPa | 0 mm | - | 513 W/m² | - |
| 1787428525 | 21.67° C | 96% | 1011.6 hPa | 0 mm | - | 212 W/m² | - |
| 1787428219 | 21.67° C | 96% | 1011.9 hPa | 0 mm | - | 134 W/m² | - |
| 1787427913 | 21.67° C | 96% | 1011.6 hPa | 0 mm | - | 110 W/m² | - |
| 1787427609 | 21.67° C | 96% | 1011.8 hPa | 0 mm | - | 115 W/m² | - |
| 1787427305 | 21.67° C | 96% | 1011.7 hPa | 0 mm | - | 177 W/m² | - |
| 1787427000 | 21.67° C | 98% | 1011.8 hPa | 0 mm | - | 324 W/m² | - |
| 1787426696 | 21.11° C | 98% | 1012 hPa | 0 mm | - | 157 W/m² | - |
| 1787426392 | 21.11° C | 99% | 1012 hPa | 0 mm | - | 138 W/m² | - |
| 1787426088 | 21.67° C | 99% | 1011.7 hPa | 0 mm | - | 207 W/m² | - |
| 1787425784 | 21.67° C | 99% | 1011.8 hPa | 0 mm | - | 314 W/m² | - |
| 1787425480 | 20.56° C | 99% | 1011.9 hPa | 0 mm | - | 624 W/m² | - |
| 1787425176 | 19.44° C | 99% | 1011.9 hPa | 0 mm | - | 181 W/m² | - |
| 1787424875 | 20° C | 99% | 1011.9 hPa | 0 mm | - | 123 W/m² | - |
* Rain latest hour (hover to see other rain measurements)
** Current wind speed in m/s (hover to see current wind gust speed)